createdAt,value
2019-03-17T00:00:09.556Z,0.00
2019-03-17T00:01:12.130Z,0.00
2019-03-17T00:02:09.525Z,0.00
2019-03-17T00:03:09.492Z,0.00
2019-03-17T00:04:09.471Z,0.00
2019-03-17T00:05:09.456Z,0.00
2019-03-17T00:06:09.448Z,0.00
2019-03-17T00:07:09.416Z,0.00
2019-03-17T00:08:09.422Z,0.00
2019-03-17T00:09:09.384Z,0.00
2019-03-17T00:10:09.356Z,0.00
2019-03-17T00:11:09.346Z,0.00
2019-03-17T00:12:09.323Z,0.00
2019-03-17T00:13:09.295Z,0.00
2019-03-17T00:14:09.295Z,0.00
2019-03-17T00:15:09.263Z,0.00
2019-03-17T00:16:09.243Z,0.00
2019-03-17T00:17:09.221Z,0.00
2019-03-17T00:18:09.202Z,0.00
2019-03-17T00:19:09.199Z,0.00
2019-03-17T00:20:09.161Z,0.00
2019-03-17T00:21:09.143Z,0.00
2019-03-17T00:22:09.120Z,0.00
2019-03-17T00:23:09.098Z,0.00
2019-03-17T00:24:09.085Z,0.00
2019-03-17T00:25:10.228Z,0.00
2019-03-17T00:26:09.054Z,0.00
2019-03-17T00:27:09.027Z,0.00
2019-03-17T00:28:09.017Z,0.00
2019-03-17T00:29:08.995Z,0.00
2019-03-17T00:30:09.001Z,0.00
2019-03-17T00:31:08.947Z,0.00
2019-03-17T00:32:08.931Z,0.00
2019-03-17T00:33:08.924Z,0.00
2019-03-17T00:34:08.897Z,0.00
2019-03-17T00:35:08.925Z,0.00
2019-03-17T00:36:08.855Z,0.00
2019-03-17T00:37:08.863Z,0.00
2019-03-17T00:38:08.842Z,0.00
2019-03-17T00:39:08.796Z,0.00
2019-03-17T00:40:08.780Z,0.00
2019-03-17T00:41:08.759Z,0.00
2019-03-17T00:42:08.737Z,0.00
2019-03-17T00:43:08.717Z,0.00
2019-03-17T00:44:08.721Z,0.00
2019-03-17T00:45:11.375Z,0.00
2019-03-17T00:46:08.661Z,0.00
2019-03-17T00:47:10.733Z,0.00
2019-03-17T00:48:08.627Z,0.00
2019-03-17T00:49:08.620Z,0.00
2019-03-17T00:50:08.598Z,0.00
2019-03-17T00:51:08.566Z,0.00
2019-03-17T00:52:08.552Z,0.00
2019-03-17T00:53:08.524Z,0.00
2019-03-17T00:54:08.527Z,0.00
2019-03-17T00:55:08.493Z,0.00
2019-03-17T00:56:08.471Z,0.00
2019-03-17T00:57:08.455Z,0.00
2019-03-17T00:58:08.438Z,0.00
2019-03-17T00:59:08.412Z,0.00
2019-03-17T01:00:08.402Z,0.00
2019-03-17T01:01:08.374Z,0.00
2019-03-17T01:02:08.366Z,0.00
2019-03-17T01:03:08.339Z,0.00
2019-03-17T01:04:08.317Z,0.00
2019-03-17T01:05:08.313Z,0.00
2019-03-17T01:06:08.275Z,0.00
2019-03-17T01:07:08.260Z,0.00
2019-03-17T01:08:08.239Z,0.00
2019-03-17T01:09:08.214Z,0.00
2019-03-17T01:10:08.204Z,0.00
2019-03-17T01:11:08.204Z,0.00
2019-03-17T01:12:08.161Z,0.00
2019-03-17T01:13:08.161Z,0.00
2019-03-17T01:14:08.119Z,0.00
2019-03-17T01:15:08.101Z,0.00
2019-03-17T01:16:08.085Z,0.00
2019-03-17T01:17:08.087Z,0.00
2019-03-17T01:18:08.046Z,0.00
2019-03-17T01:19:08.017Z,0.00
2019-03-17T01:20:08.006Z,0.00
2019-03-17T01:21:07.988Z,0.00
2019-03-17T01:22:07.981Z,0.00
2019-03-17T01:23:07.947Z,0.00
2019-03-17T01:24:10.282Z,0.00
2019-03-17T01:25:07.902Z,0.00
2019-03-17T01:26:07.912Z,0.00
2019-03-17T01:27:07.873Z,0.00
2019-03-17T01:28:07.845Z,0.00
2019-03-17T01:29:07.831Z,0.00
2019-03-17T01:30:07.813Z,0.00
2019-03-17T01:31:07.787Z,0.00
2019-03-17T01:32:07.789Z,0.00
2019-03-17T01:33:07.751Z,0.00
2019-03-17T01:34:07.733Z,0.00
2019-03-17T01:35:09.432Z,0.00
2019-03-17T01:36:07.698Z,0.00
2019-03-17T01:37:07.688Z,0.00
2019-03-17T01:38:07.655Z,0.00
2019-03-17T01:39:07.638Z,0.00
2019-03-17T01:40:07.642Z,0.00
2019-03-17T01:41:07.618Z,0.00
2019-03-17T01:42:07.578Z,0.00
2019-03-17T01:43:07.555Z,0.00
2019-03-17T01:44:07.537Z,0.00
2019-03-17T01:45:07.519Z,0.00
2019-03-17T01:46:07.516Z,0.00
2019-03-17T01:47:07.481Z,0.00
2019-03-17T01:48:07.457Z,0.00
2019-03-17T01:49:07.438Z,0.00
2019-03-17T01:50:07.422Z,0.00
2019-03-17T01:51:07.441Z,0.00
2019-03-17T01:52:07.460Z,0.00
2019-03-17T01:53:07.375Z,0.00
2019-03-17T01:54:07.403Z,0.00
2019-03-17T01:55:07.327Z,0.00
2019-03-17T01:56:07.303Z,0.00
2019-03-17T01:57:07.285Z,0.00
2019-03-17T01:58:07.281Z,0.00
2019-03-17T01:59:07.265Z,0.00
2019-03-17T02:00:07.225Z,0.00
2019-03-17T02:01:07.208Z,0.00
2019-03-17T02:02:07.182Z,0.00
2019-03-17T02:03:07.164Z,0.00
2019-03-17T02:04:07.165Z,0.00
2019-03-17T02:05:07.129Z,0.00
2019-03-17T02:06:07.111Z,0.00
2019-03-17T02:07:07.086Z,0.00
2019-03-17T02:08:07.068Z,0.00
2019-03-17T02:09:07.066Z,0.00
2019-03-17T02:10:07.047Z,0.00
2019-03-17T02:11:07.012Z,0.00
2019-03-17T02:12:07.004Z,0.00
2019-03-17T02:13:06.970Z,0.00
2019-03-17T02:14:06.955Z,0.00
2019-03-17T02:15:06.932Z,0.00
2019-03-17T02:16:06.930Z,0.00
2019-03-17T02:17:06.900Z,0.00
2019-03-17T02:18:07.515Z,0.00
2019-03-17T02:19:06.855Z,0.00
2019-03-17T02:20:06.837Z,0.00
2019-03-17T02:21:06.849Z,0.00
2019-03-17T02:22:06.825Z,0.00
2019-03-17T02:23:06.773Z,0.00
2019-03-17T02:24:06.756Z,0.00
2019-03-17T02:25:06.746Z,0.00
2019-03-17T02:26:06.725Z,0.00
2019-03-17T02:27:06.703Z,0.00
2019-03-17T02:28:06.700Z,0.00
2019-03-17T02:29:06.658Z,0.00
2019-03-17T02:30:06.656Z,0.00
2019-03-17T02:31:06.620Z,0.00
2019-03-17T02:32:06.600Z,0.00
2019-03-17T02:33:06.583Z,0.00
2019-03-17T02:34:06.567Z,0.00
2019-03-17T02:35:06.559Z,0.00
2019-03-17T02:36:06.522Z,0.00
2019-03-17T02:37:06.507Z,0.00
2019-03-17T02:38:06.484Z,0.00
2019-03-17T02:39:06.657Z,0.00
2019-03-17T02:40:06.446Z,0.00
2019-03-17T02:41:06.424Z,0.00
2019-03-17T02:42:06.404Z,0.00
2019-03-17T02:43:06.398Z,0.00
2019-03-17T02:44:06.384Z,0.00
2019-03-17T02:45:06.363Z,0.00
2019-03-17T02:46:06.328Z,0.00
2019-03-17T02:47:06.318Z,0.00
2019-03-17T02:48:06.286Z,0.00
2019-03-17T02:49:06.272Z,0.00
2019-03-17T02:50:06.265Z,0.00
2019-03-17T02:51:06.235Z,0.00
2019-03-17T02:52:06.220Z,0.00
2019-03-17T02:53:06.190Z,0.00
2019-03-17T02:54:06.228Z,0.00
2019-03-17T02:55:06.200Z,0.00
2019-03-17T02:56:06.130Z,0.00
2019-03-17T02:57:06.137Z,0.00
2019-03-17T02:58:06.094Z,0.00
2019-03-17T02:59:06.085Z,0.00
2019-03-17T03:00:06.069Z,0.00
2019-03-17T03:01:06.085Z,0.00
2019-03-17T03:02:06.018Z,0.00
2019-03-17T03:03:05.999Z,0.00
2019-03-17T03:04:05.972Z,0.00
2019-03-17T03:05:05.960Z,0.00
2019-03-17T03:06:05.962Z,0.00
2019-03-17T03:07:05.926Z,0.00
2019-03-17T03:08:05.896Z,0.00
2019-03-17T03:09:05.883Z,0.00
2019-03-17T03:10:05.859Z,0.00
2019-03-17T03:11:05.849Z,0.00
2019-03-17T03:12:05.838Z,0.00
2019-03-17T03:13:05.815Z,0.00
2019-03-17T03:14:05.778Z,0.00
2019-03-17T03:15:05.759Z,0.00
2019-03-17T03:16:06.360Z,0.00
2019-03-17T03:17:05.719Z,0.00
2019-03-17T03:18:05.703Z,0.00
2019-03-17T03:19:05.697Z,0.00
2019-03-17T03:20:05.668Z,0.00
2019-03-17T03:21:05.636Z,0.00
2019-03-17T03:22:05.619Z,0.00
2019-03-17T03:23:05.616Z,0.00
2019-03-17T03:24:05.606Z,0.00
2019-03-17T03:25:05.575Z,0.00
2019-03-17T03:26:05.542Z,0.00
2019-03-17T03:27:05.521Z,0.00
2019-03-17T03:28:05.506Z,0.00
2019-03-17T03:29:05.502Z,0.00
2019-03-17T03:30:05.480Z,0.00
2019-03-17T03:31:05.471Z,0.00
2019-03-17T03:32:05.426Z,0.00
2019-03-17T03:33:05.401Z,0.00
2019-03-17T03:34:05.386Z,0.00
2019-03-17T03:35:05.382Z,0.00
2019-03-17T03:36:11.462Z,0.00
2019-03-17T03:37:05.326Z,0.00
2019-03-17T03:38:05.303Z,0.00
2019-03-17T03:39:05.288Z,0.00
2019-03-17T03:40:05.267Z,0.00
2019-03-17T03:41:05.264Z,0.00
2019-03-17T03:42:05.224Z,0.00
2019-03-17T03:43:05.205Z,0.00
2019-03-17T03:44:05.192Z,0.00
2019-03-17T03:45:05.172Z,0.00
2019-03-17T03:46:05.150Z,0.00
2019-03-17T03:47:05.145Z,0.00
2019-03-17T03:48:05.110Z,0.00
2019-03-17T03:49:05.093Z,0.00
2019-03-17T03:50:05.071Z,0.00
2019-03-17T03:51:05.066Z,0.00
2019-03-17T03:52:05.035Z,0.00
2019-03-17T03:53:05.019Z,0.00
2019-03-17T03:54:04.992Z,0.00
2019-03-17T03:55:04.972Z,0.00
2019-03-17T03:56:04.969Z,0.00
2019-03-17T03:57:04.966Z,0.00
2019-03-17T03:58:04.952Z,0.00
2019-03-17T04:00:47.010Z,0.00
2019-03-17T04:01:46.998Z,0.00
2019-03-17T04:02:46.969Z,0.00
2019-03-17T04:03:46.940Z,0.00
2019-03-17T04:04:46.928Z,0.00
2019-03-17T04:05:46.907Z,0.00
2019-03-17T04:06:46.904Z,0.00
2019-03-17T04:07:46.862Z,0.00
2019-03-17T04:08:46.841Z,0.00
2019-03-17T04:09:46.832Z,0.00
2019-03-17T04:10:46.814Z,0.00
2019-03-17T04:11:46.783Z,0.00
2019-03-17T04:12:46.780Z,0.00
2019-03-17T04:13:46.742Z,0.00
2019-03-17T04:14:46.722Z,0.00
2019-03-17T04:15:46.701Z,0.00
2019-03-17T04:16:46.688Z,0.00
2019-03-17T04:17:46.664Z,0.00
2019-03-17T04:18:46.664Z,0.00
2019-03-17T04:19:46.622Z,0.00
2019-03-17T04:20:46.603Z,0.00
2019-03-17T04:21:46.588Z,0.00
2019-03-17T04:22:46.567Z,0.00
2019-03-17T04:23:46.546Z,0.00
2019-03-17T04:24:46.560Z,0.00
2019-03-17T04:25:46.505Z,0.00
2019-03-17T04:26:46.480Z,0.00
2019-03-17T04:27:46.459Z,0.00
2019-03-17T04:28:46.441Z,0.00
2019-03-17T04:29:46.421Z,0.00
2019-03-17T04:30:46.421Z,0.00
2019-03-17T04:31:46.434Z,0.00
2019-03-17T04:32:46.368Z,0.00
2019-03-17T04:33:46.344Z,0.00
2019-03-17T04:34:46.337Z,0.00
2019-03-17T04:35:46.302Z,0.00
2019-03-17T04:36:46.299Z,0.00
2019-03-17T04:37:46.267Z,0.00
2019-03-17T04:38:46.261Z,0.00
2019-03-17T04:41:28.511Z,0.00
2019-03-17T04:42:28.482Z,0.00
2019-03-17T04:43:28.472Z,0.00
2019-03-17T04:44:28.464Z,0.00
2019-03-17T04:45:28.433Z,0.00
2019-03-17T04:46:29.125Z,0.00
2019-03-17T04:47:28.385Z,0.00
2019-03-17T04:48:28.370Z,0.00
2019-03-17T04:49:28.371Z,0.00
2019-03-17T04:50:28.328Z,0.00
2019-03-17T04:51:28.342Z,0.00
2019-03-17T04:52:28.284Z,0.00
2019-03-17T04:53:28.268Z,0.00
2019-03-17T04:54:28.263Z,0.00
2019-03-17T04:55:28.224Z,0.00
2019-03-17T04:56:28.215Z,0.00
2019-03-17T04:57:28.186Z,0.00
2019-03-17T04:58:28.186Z,0.00
2019-03-17T04:59:28.142Z,0.00
2019-03-17T05:00:28.124Z,0.00
2019-03-17T05:01:28.105Z,0.00
2019-03-17T05:02:28.086Z,0.00
2019-03-17T05:03:28.084Z,0.00
2019-03-17T05:04:28.065Z,0.00
2019-03-17T05:05:28.023Z,0.00
2019-03-17T05:06:28.008Z,0.00
2019-03-17T05:07:27.983Z,0.00
2019-03-17T05:08:27.969Z,0.00
2019-03-17T05:09:27.940Z,0.00
2019-03-17T05:10:27.936Z,0.00
2019-03-17T05:11:27.903Z,0.00
2019-03-17T05:12:27.884Z,0.00
2019-03-17T05:13:27.860Z,0.00
2019-03-17T05:14:27.852Z,0.00
2019-03-17T05:15:27.820Z,0.00
2019-03-17T05:16:27.798Z,0.00
2019-03-17T05:17:27.780Z,0.00
2019-03-17T05:18:27.763Z,0.00
2019-03-17T05:19:27.738Z,0.00
2019-03-17T05:20:27.732Z,0.00
2019-03-17T05:21:27.703Z,4.00
2019-03-17T05:22:27.674Z,4.00
2019-03-17T05:23:27.654Z,4.00
2019-03-17T05:24:27.629Z,4.00
2019-03-17T05:25:27.609Z,4.00
2019-03-17T05:26:29.604Z,8.00
2019-03-17T05:27:27.611Z,8.00
2019-03-17T05:28:27.550Z,4.00
2019-03-17T05:29:27.526Z,8.00
2019-03-17T05:30:27.513Z,8.00
2019-03-17T05:31:27.503Z,8.00
2019-03-17T05:32:27.473Z,8.00
2019-03-17T05:33:27.442Z,12.00
2019-03-17T05:34:27.434Z,16.00
2019-03-17T05:35:27.407Z,16.00
2019-03-17T05:36:27.384Z,20.00
2019-03-17T05:37:27.378Z,24.00
2019-03-17T05:38:27.358Z,24.00
2019-03-17T05:39:27.317Z,28.00
2019-03-17T05:40:27.313Z,36.00
2019-03-17T05:41:27.330Z,36.00
2019-03-17T05:42:27.270Z,32.00
2019-03-17T05:43:27.257Z,36.00
2019-03-17T05:44:27.250Z,40.00
2019-03-17T05:45:27.200Z,48.00
2019-03-17T05:46:27.273Z,52.00
2019-03-17T05:47:27.155Z,68.00
2019-03-17T05:48:27.132Z,84.00
2019-03-17T05:49:27.121Z,80.00
2019-03-17T05:50:27.097Z,80.00
2019-03-17T05:51:27.071Z,92.00
2019-03-17T05:52:27.065Z,104.00
2019-03-17T05:53:27.047Z,108.00
2019-03-17T05:54:27.016Z,112.00
2019-03-17T05:55:26.985Z,120.00
2019-03-17T05:56:26.967Z,116.00
2019-03-17T05:57:26.944Z,104.00
2019-03-17T05:58:26.926Z,112.00
2019-03-17T05:59:26.915Z,128.00
2019-03-17T06:00:26.884Z,136.00
2019-03-17T06:01:26.857Z,140.00
2019-03-17T06:02:26.844Z,176.00
2019-03-17T06:03:26.818Z,196.00
2019-03-17T06:04:26.818Z,212.00
2019-03-17T06:05:26.777Z,200.00
2019-03-17T06:06:26.758Z,200.00
2019-03-17T06:07:26.735Z,200.00
2019-03-17T06:08:26.716Z,256.00
2019-03-17T06:09:26.716Z,260.00
2019-03-17T06:10:26.680Z,316.00
2019-03-17T06:11:26.668Z,260.00
2019-03-17T06:12:26.632Z,292.00
2019-03-17T06:13:26.614Z,284.00
2019-03-17T06:14:26.592Z,248.00
2019-03-17T06:15:26.589Z,300.00
2019-03-17T06:16:26.550Z,260.00
2019-03-17T06:17:26.528Z,240.00
2019-03-17T06:18:26.509Z,256.00
2019-03-17T06:19:26.487Z,264.00
2019-03-17T06:20:26.482Z,280.00
2019-03-17T06:21:26.450Z,292.00
2019-03-17T06:22:26.422Z,304.00
2019-03-17T06:23:26.401Z,300.00
2019-03-17T06:24:26.400Z,284.00
2019-03-17T06:25:28.159Z,292.00
2019-03-17T06:26:26.345Z,348.00
2019-03-17T06:27:26.321Z,500.00
2019-03-17T06:28:26.305Z,608.00
2019-03-17T06:29:27.133Z,620.00
2019-03-17T06:30:26.258Z,632.00
2019-03-17T06:31:26.258Z,516.00
2019-03-17T06:32:26.219Z,748.00
2019-03-17T06:33:26.192Z,896.00
2019-03-17T06:34:27.101Z,824.00
2019-03-17T06:35:26.152Z,892.00
2019-03-17T06:36:26.130Z,704.00
2019-03-17T06:37:30.913Z,816.00
2019-03-17T06:38:26.094Z,720.00
2019-03-17T06:39:26.076Z,500.00
2019-03-17T06:40:26.047Z,572.00
2019-03-17T06:41:26.028Z,604.00
2019-03-17T06:42:26.028Z,888.00
2019-03-17T06:43:26.003Z,944.00
2019-03-17T06:44:25.959Z,712.00
2019-03-17T06:45:25.950Z,540.00
2019-03-17T06:46:25.928Z,508.00
2019-03-17T06:47:25.915Z,484.00
2019-03-17T06:48:26.563Z,648.00
2019-03-17T06:49:25.856Z,1048.00
2019-03-17T06:50:25.842Z,868.00
2019-03-17T06:51:25.814Z,924.00
2019-03-17T06:52:25.818Z,836.00
2019-03-17T06:53:25.774Z,752.00
2019-03-17T06:54:25.754Z,836.00
2019-03-17T06:55:25.738Z,1000.00
2019-03-17T06:56:25.713Z,1088.00
2019-03-17T06:57:25.707Z,1032.00
2019-03-17T06:58:25.667Z,1096.00
2019-03-17T06:59:25.648Z,1416.00
2019-03-17T07:00:25.628Z,1184.00
2019-03-17T07:01:25.606Z,1328.00
2019-03-17T07:02:25.609Z,1084.00
2019-03-17T07:03:25.577Z,1072.00
2019-03-17T07:04:25.543Z,1040.00
2019-03-17T07:05:25.539Z,1052.00
2019-03-17T07:06:25.515Z,928.00
2019-03-17T07:07:25.500Z,1080.00
2019-03-17T07:08:25.459Z,1064.00
2019-03-17T07:09:25.441Z,1432.00
2019-03-17T07:10:25.442Z,1920.00
2019-03-17T07:11:25.401Z,2316.00
2019-03-17T07:12:25.395Z,2220.00
2019-03-17T07:13:25.382Z,2084.00
2019-03-17T07:14:25.341Z,2128.00
2019-03-17T07:15:25.320Z,2304.00
2019-03-17T07:16:25.295Z,2500.00
2019-03-17T07:17:25.280Z,2752.00
2019-03-17T07:18:25.262Z,2824.00
2019-03-17T07:19:25.264Z,2688.00
2019-03-17T07:20:25.211Z,2468.00
2019-03-17T07:21:25.197Z,2180.00
2019-03-17T07:22:25.168Z,1896.00
2019-03-17T07:23:25.160Z,1776.00
2019-03-17T07:24:25.163Z,1740.00
2019-03-17T07:25:25.112Z,1608.00
2019-03-17T07:26:25.093Z,1584.00
2019-03-17T07:27:25.086Z,1696.00
2019-03-17T07:28:25.067Z,1804.00
2019-03-17T07:29:25.054Z,1924.00
2019-03-17T07:30:25.014Z,1964.00
2019-03-17T07:31:24.988Z,1944.00
2019-03-17T07:32:24.966Z,1972.00
2019-03-17T07:33:24.952Z,1900.00
2019-03-17T07:34:24.943Z,1636.00
2019-03-17T07:35:24.967Z,1316.00
2019-03-17T07:36:24.894Z,1116.00
2019-03-17T07:37:24.867Z,916.00
2019-03-17T07:38:24.851Z,1200.00
2019-03-17T07:39:24.842Z,1136.00
2019-03-17T07:40:24.804Z,1076.00
2019-03-17T07:41:24.783Z,1096.00
2019-03-17T07:42:24.758Z,1280.00
2019-03-17T07:43:24.770Z,1208.00
2019-03-17T07:44:24.726Z,992.00
2019-03-17T07:45:24.692Z,908.00
2019-03-17T07:46:24.686Z,768.00
2019-03-17T07:47:24.666Z,648.00
2019-03-17T07:48:24.673Z,916.00
2019-03-17T07:49:24.633Z,1020.00
2019-03-17T07:50:24.600Z,1192.00
2019-03-17T07:51:24.577Z,1188.00
2019-03-17T07:52:24.552Z,1128.00
2019-03-17T07:53:24.534Z,1136.00
2019-03-17T07:54:24.560Z,1328.00
2019-03-17T07:55:24.491Z,1308.00
2019-03-17T07:56:24.499Z,1460.00
2019-03-17T07:57:24.471Z,1852.00
2019-03-17T07:58:24.431Z,2196.00
2019-03-17T07:59:24.430Z,2336.00
2019-03-17T08:00:31.948Z,2264.00
2019-03-17T08:01:24.382Z,2712.00
2019-03-17T08:02:24.347Z,2996.00
2019-03-17T08:03:24.333Z,3236.00
2019-03-17T08:04:24.315Z,3272.00
2019-03-17T08:05:24.306Z,2972.00
2019-03-17T08:06:24.270Z,2624.00
2019-03-17T08:07:24.245Z,2684.00
2019-03-17T08:08:24.292Z,2936.00
2019-03-17T08:09:24.204Z,3308.00
2019-03-17T08:12:06.549Z,2808.00
2019-03-17T08:13:06.537Z,2928.00
2019-03-17T08:14:06.498Z,3184.00
2019-03-17T08:15:06.493Z,2836.00
2019-03-17T08:16:06.466Z,2752.00
2019-03-17T08:17:06.447Z,3292.00
2019-03-17T08:18:06.422Z,4812.00
2019-03-17T08:19:06.397Z,5372.00
2019-03-17T08:20:06.378Z,5492.00
2019-03-17T08:21:06.379Z,5736.00
2019-03-17T08:22:06.339Z,5228.00
2019-03-17T08:23:06.311Z,4696.00
2019-03-17T08:24:06.291Z,4780.00
2019-03-17T08:25:06.275Z,4380.00
2019-03-17T08:26:06.276Z,4252.00
2019-03-17T08:27:06.231Z,3928.00
2019-03-17T08:28:06.293Z,3972.00
2019-03-17T08:29:06.191Z,4036.00
2019-03-17T08:30:06.182Z,4076.00
2019-03-17T08:31:06.139Z,3452.00
2019-03-17T08:32:06.157Z,3136.00
2019-03-17T08:33:06.118Z,3216.00
2019-03-17T08:34:06.086Z,3040.00
2019-03-17T08:35:06.069Z,2784.00
2019-03-17T08:36:06.045Z,3592.00
2019-03-17T08:37:06.034Z,4932.00
2019-03-17T08:38:06.022Z,4784.00
2019-03-17T08:39:05.983Z,5596.00
2019-03-17T08:40:05.969Z,4956.00
2019-03-17T08:41:05.963Z,3936.00
2019-03-17T08:42:05.930Z,4844.00
2019-03-17T08:43:05.908Z,5112.00
2019-03-17T08:44:05.898Z,5488.00
2019-03-17T08:45:05.903Z,4716.00
2019-03-17T08:46:05.857Z,4232.00
2019-03-17T08:47:05.818Z,3100.00
2019-03-17T08:48:05.811Z,3416.00
2019-03-17T08:49:05.799Z,5276.00
2019-03-17T08:50:05.761Z,5024.00
2019-03-17T08:51:05.741Z,4580.00
2019-03-17T08:52:05.727Z,4272.00
2019-03-17T08:53:05.708Z,5744.00
2019-03-17T08:54:05.684Z,5484.00
2019-03-17T08:55:05.685Z,5760.00
2019-03-17T08:56:05.655Z,4584.00
2019-03-17T08:57:05.626Z,3148.00
2019-03-17T08:58:05.639Z,5356.00
2019-03-17T08:59:05.586Z,4572.00
2019-03-17T09:00:05.584Z,3400.00
2019-03-17T09:01:05.556Z,4560.00
2019-03-17T09:02:05.531Z,5660.00
2019-03-17T09:03:05.503Z,5168.00
2019-03-17T09:04:05.482Z,5560.00
2019-03-17T09:05:05.464Z,4632.00
2019-03-17T09:06:05.467Z,5488.00
2019-03-17T09:07:05.422Z,4784.00
2019-03-17T09:08:05.411Z,3932.00
2019-03-17T09:09:05.384Z,4984.00
2019-03-17T09:10:05.376Z,5028.00
2019-03-17T09:11:05.335Z,6480.00
2019-03-17T09:12:05.336Z,6272.00
2019-03-17T09:13:05.322Z,6780.00
2019-03-17T09:14:05.288Z,7412.00
2019-03-17T09:15:05.260Z,5916.00
2019-03-17T09:16:05.243Z,6576.00
2019-03-17T09:17:14.149Z,6816.00
2019-03-17T09:18:05.199Z,8652.00
2019-03-17T09:19:05.177Z,7776.00
2019-03-17T09:20:05.183Z,8732.00
2019-03-17T09:21:05.159Z,8500.00
2019-03-17T09:22:05.145Z,7604.00
2019-03-17T09:23:05.119Z,7368.00
2019-03-17T09:24:16.595Z,6572.00
2019-03-17T09:25:05.067Z,6392.00
2019-03-17T09:26:05.041Z,6968.00
2019-03-17T09:27:05.031Z,8176.00
2019-03-17T09:28:04.999Z,8480.00
2019-03-17T09:29:05.016Z,7960.00
2019-03-17T09:30:04.959Z,6804.00
2019-03-17T09:31:07.497Z,6672.00
2019-03-17T09:32:04.938Z,7804.00
2019-03-17T09:33:04.907Z,7500.00
2019-03-17T09:34:04.886Z,6140.00
2019-03-17T09:35:04.894Z,6148.00
2019-03-17T09:36:04.850Z,7224.00
2019-03-17T09:37:04.857Z,8364.00
2019-03-17T09:38:04.806Z,8392.00
2019-03-17T09:39:04.793Z,7900.00
2019-03-17T09:40:04.769Z,7980.00
2019-03-17T09:41:04.752Z,8104.00
2019-03-17T09:42:04.755Z,8176.00
2019-03-17T09:43:04.729Z,8432.00
2019-03-17T09:44:04.712Z,7764.00
2019-03-17T09:45:04.671Z,8828.00
2019-03-17T09:46:04.657Z,8124.00
2019-03-17T09:47:04.636Z,8036.00
2019-03-17T09:48:04.617Z,8324.00
2019-03-17T09:49:04.594Z,8480.00
2019-03-17T09:50:04.598Z,6740.00
2019-03-17T09:51:04.554Z,7780.00
2019-03-17T09:52:04.540Z,8300.00
2019-03-17T09:53:04.538Z,7084.00
2019-03-17T09:54:04.499Z,7980.00
2019-03-17T09:55:04.482Z,8480.00
2019-03-17T09:56:04.474Z,7872.00
2019-03-17T09:57:04.463Z,8120.00
2019-03-17T09:58:04.425Z,7760.00
2019-03-17T09:59:04.415Z,7772.00
2019-03-17T10:00:04.397Z,7056.00
2019-03-17T10:01:04.389Z,6664.00
2019-03-17T10:02:04.344Z,6268.00
2019-03-17T10:03:04.323Z,6392.00
2019-03-17T10:04:04.313Z,6428.00
2019-03-17T10:05:04.299Z,5536.00
2019-03-17T10:06:04.297Z,5672.00
2019-03-17T10:07:04.264Z,5640.00
2019-03-17T10:08:04.230Z,5208.00
2019-03-17T10:09:04.217Z,5504.00
2019-03-17T10:10:04.196Z,5868.00
2019-03-17T10:11:04.194Z,6492.00
2019-03-17T10:12:04.174Z,6832.00
2019-03-17T10:13:04.144Z,7112.00
2019-03-17T10:14:04.116Z,7536.00
2019-03-17T10:15:04.107Z,8688.00
2019-03-17T10:16:04.085Z,8912.00
2019-03-17T10:17:04.075Z,7876.00
2019-03-17T10:18:04.054Z,7940.00
2019-03-17T10:19:04.031Z,8500.00
2019-03-17T10:20:04.014Z,7400.00
2019-03-17T10:21:03.979Z,9520.00
2019-03-17T10:22:03.963Z,8312.00
2019-03-17T10:23:03.944Z,8704.00
2019-03-17T10:24:03.993Z,10060.00
2019-03-17T10:25:03.900Z,11836.00
2019-03-17T10:26:03.891Z,13084.00
2019-03-17T10:27:03.863Z,12056.00
2019-03-17T10:28:03.850Z,13980.00
2019-03-17T10:29:03.827Z,9208.00
2019-03-17T10:30:03.827Z,12716.00
2019-03-17T10:31:03.791Z,10240.00
2019-03-17T10:32:03.786Z,14048.00
2019-03-17T10:33:03.760Z,7572.00
2019-03-17T10:34:03.737Z,13952.00
2019-03-17T10:35:03.724Z,10992.00
2019-03-17T10:36:03.717Z,10748.00
2019-03-17T10:37:03.677Z,9876.00
2019-03-17T10:38:03.661Z,12076.00
2019-03-17T10:39:12.458Z,9792.00
2019-03-17T10:40:03.629Z,9344.00
2019-03-17T10:41:03.629Z,11928.00
2019-03-17T10:42:03.605Z,12864.00
2019-03-17T10:43:03.572Z,6724.00
2019-03-17T10:44:03.554Z,6616.00
2019-03-17T10:45:03.552Z,15872.00
2019-03-17T10:46:03.532Z,4412.00
2019-03-17T10:47:03.538Z,4124.00
2019-03-17T10:48:03.500Z,3952.00
2019-03-17T10:49:03.471Z,3272.00
2019-03-17T10:50:03.453Z,12480.00
2019-03-17T10:51:03.467Z,3524.00
2019-03-17T10:52:03.464Z,3812.00
2019-03-17T10:53:03.403Z,4048.00
2019-03-17T10:54:03.397Z,3984.00
2019-03-17T10:55:03.371Z,5096.00
2019-03-17T10:56:03.363Z,14560.00
2019-03-17T10:57:03.353Z,7912.00
2019-03-17T10:58:03.325Z,6580.00
2019-03-17T10:59:03.297Z,4424.00
2019-03-17T11:00:03.283Z,3144.00
2019-03-17T11:01:03.262Z,2896.00
2019-03-17T11:02:03.266Z,12408.00
2019-03-17T11:03:03.224Z,11544.00
2019-03-17T11:04:03.208Z,13208.00
2019-03-17T11:05:03.198Z,10540.00
2019-03-17T11:06:03.172Z,11728.00
2019-03-17T11:07:03.172Z,4696.00
2019-03-17T11:08:03.174Z,4548.00
2019-03-17T11:10:45.097Z,16992.00
2019-03-17T11:11:45.064Z,16416.00
2019-03-17T11:12:45.050Z,17760.00
2019-03-17T11:13:45.036Z,9820.00
2019-03-17T11:14:45.025Z,10040.00
2019-03-17T11:15:45.020Z,18976.00
2019-03-17T11:16:44.985Z,16512.00
2019-03-17T11:17:44.969Z,9876.00
2019-03-17T11:18:44.953Z,19264.00
2019-03-17T11:19:44.934Z,19904.00
2019-03-17T11:20:44.939Z,7108.00
2019-03-17T11:21:44.903Z,4768.00
2019-03-17T11:22:44.891Z,4968.00
2019-03-17T11:23:44.870Z,5700.00
2019-03-17T11:24:44.866Z,7724.00
2019-03-17T11:25:44.839Z,5892.00
2019-03-17T11:26:44.839Z,3420.00
2019-03-17T11:27:44.810Z,3892.00
2019-03-17T11:28:44.813Z,7596.00
2019-03-17T11:29:44.782Z,15424.00
2019-03-17T11:30:44.763Z,3024.00
2019-03-17T11:31:44.770Z,2920.00
2019-03-17T11:32:44.749Z,3244.00
2019-03-17T11:33:44.715Z,3380.00
2019-03-17T11:34:44.720Z,2724.00
2019-03-17T11:35:44.691Z,2676.00
2019-03-17T11:36:44.713Z,3200.00
2019-03-17T11:37:44.660Z,3056.00
2019-03-17T11:38:44.632Z,3036.00
2019-03-17T11:39:44.634Z,3192.00
2019-03-17T11:40:44.603Z,3052.00
2019-03-17T11:41:44.587Z,13408.00
2019-03-17T11:42:44.567Z,15008.00
2019-03-17T11:43:44.581Z,7504.00
2019-03-17T11:44:44.526Z,10944.00
2019-03-17T11:45:44.521Z,14496.00
2019-03-17T11:46:44.489Z,12680.00
2019-03-17T11:47:44.482Z,15136.00
2019-03-17T11:48:44.475Z,4292.00
2019-03-17T11:49:46.170Z,7204.00
2019-03-17T11:50:44.418Z,15008.00
2019-03-17T11:51:44.400Z,14112.00
2019-03-17T11:52:44.431Z,15680.00
2019-03-17T11:53:44.376Z,15904.00
2019-03-17T11:54:44.352Z,5880.00
2019-03-17T11:55:44.336Z,6068.00
2019-03-17T11:56:44.327Z,11844.00
2019-03-17T11:57:44.306Z,20640.00
2019-03-17T11:58:44.316Z,20000.00
2019-03-17T11:59:44.297Z,19456.00
2019-03-17T12:00:44.261Z,18496.00
2019-03-17T12:01:44.251Z,16064.00
2019-03-17T12:02:44.256Z,14368.00
2019-03-17T12:03:44.216Z,13056.00
2019-03-17T12:04:44.224Z,9620.00
2019-03-17T12:05:44.183Z,12916.00
2019-03-17T12:06:44.192Z,10364.00
2019-03-17T12:07:44.175Z,9784.00
2019-03-17T12:08:44.148Z,8520.00
2019-03-17T12:09:49.904Z,8384.00
2019-03-17T12:10:44.143Z,7488.00
2019-03-17T12:11:44.117Z,7024.00
2019-03-17T12:12:44.107Z,7336.00
2019-03-17T12:13:44.080Z,8308.00
2019-03-17T12:14:44.064Z,9012.00
2019-03-17T12:15:44.052Z,10064.00
2019-03-17T12:16:44.050Z,11292.00
2019-03-17T12:17:44.026Z,8804.00
2019-03-17T12:18:44.025Z,7496.00
2019-03-17T12:19:43.981Z,10756.00
2019-03-17T12:20:43.969Z,19072.00
2019-03-17T12:21:43.958Z,20480.00
2019-03-17T12:22:43.959Z,6976.00
2019-03-17T12:23:43.979Z,19520.00
2019-03-17T12:24:43.907Z,9408.00
2019-03-17T12:25:43.893Z,23136.00
2019-03-17T12:26:43.872Z,20544.00
2019-03-17T12:27:43.985Z,13728.00
2019-03-17T12:28:43.858Z,9916.00
2019-03-17T12:29:43.826Z,7580.00
2019-03-17T12:30:43.818Z,7512.00
2019-03-17T12:31:43.800Z,6716.00
2019-03-17T12:32:43.781Z,6124.00
2019-03-17T12:35:26.138Z,7060.00
2019-03-17T12:36:26.082Z,9392.00
2019-03-17T12:37:26.091Z,9744.00
2019-03-17T12:38:26.052Z,9844.00
2019-03-17T12:39:26.051Z,12724.00
2019-03-17T12:40:26.050Z,9080.00
2019-03-17T12:41:26.003Z,10452.00
2019-03-17T12:42:25.987Z,15520.00
2019-03-17T12:43:25.992Z,12940.00
2019-03-17T12:44:25.955Z,11732.00
2019-03-17T12:45:25.934Z,10164.00